M I D A S
Marine Information and Data Acquisition System
Tripno 1660 of the Zeeleeuw from 2009-03-19 07:30:53 to 2009-03-19 13:03:15
Back to CruiseResearch ActivitiesStationsMapUnderway DataData graphs

EquipmentUnitsComment
TimeDGPSUTC
LatitudeDGPSDM.mWGS84
LongitudeDGPSDM.mWGS84
HeadingGyrodeg 
SOGDGPSknotsSpeed over ground
COGDGPSdegCourse over ground
DepthEcho soundermeters200 kHz
Missing or incorrect values are displayed as -999
Navigation data collected by the RV Zeeleeuw from 2009-03-19 07:24:05 to 2009-03-19 13:13:15
                                                                                    Next 1000 lines
Time Latitude Longitude Heading SOG COG Depth
2009-03-19 07:24:14 51°13.662 2°55.955 111.4 0.9 294 7.4
2009-03-19 07:24:19 51°13.663 2°55.952 111.1 1.1 290 7.4
2009-03-19 07:24:24 51°13.663 2°55.949 111.1 1.4 293 7.3
2009-03-19 07:24:29 51°13.664 2°55.946 111.1 1.5 291 7.6
2009-03-19 07:24:34 51°13.665 2°55.943 111.4 1.8 294 -999
2009-03-19 07:24:40 51°13.666 2°55.938 111.9 2 292 -999
2009-03-19 07:24:46 51°13.668 2°55.932 112.3 2.2 294 -999
2009-03-19 07:24:52 51°13.669 2°55.927 112.5 2.4 293 -999
2009-03-19 07:24:57 51°13.671 2°55.922 112.4 2.5 293 -999
2009-03-19 07:25:03 51°13.672 2°55.915 111.9 2.6 292 -999
2009-03-19 07:25:08 51°13.674 2°55.91 111.1 2.7 292 -999
2009-03-19 07:25:13 51°13.675 2°55.904 110.5 2.7 291 -999
2009-03-19 07:25:18 51°13.676 2°55.898 110 2.8 291 -999
2009-03-19 07:25:23 51°13.678 2°55.892 109.7 2.8 290 -999
2009-03-19 07:25:28 51°13.679 2°55.886 109.5 3 289 -999
2009-03-19 07:25:33 51°13.681 2°55.88 109.1 3 291 -999
2009-03-19 07:25:37 51°13.682 2°55.875 108.8 3 290 -999
2009-03-19 07:25:43 51°13.683 2°55.868 108.3 3 289 -999
2009-03-19 07:25:48 51°13.685 2°55.861 107.7 3.1 288 -999
2009-03-19 07:25:53 51°13.686 2°55.854 107.2 3.1 288 -999
2009-03-19 07:25:57 51°13.687 2°55.849 106.7 3.2 287 -999
2009-03-19 07:26:03 51°13.689 2°55.84 106.1 3.4 287 -999
2009-03-19 07:26:08 51°13.69 2°55.833 105.7 3.4 288 -999
2009-03-19 07:26:13 51°13.692 2°55.826 105.2 3.4 287 -999
2009-03-19 07:26:17 51°13.693 2°55.821 104.8 3.3 287 -999
2009-03-19 07:26:22 51°13.694 2°55.814 104.4 3.1 287 -999
2009-03-19 07:26:28 51°13.695 2°55.806 103.9 3 287 -999
2009-03-19 07:26:33 51°13.696 2°55.8 103.4 2.9 286 -999
2009-03-19 07:26:38 51°13.698 2°55.794 102.7 2.8 286 -999
2009-03-19 07:26:42 51°13.698 2°55.79 102 2.7 285 -999
2009-03-19 07:26:47 51°13.699 2°55.785 101.3 2.5 285 11.8
2009-03-19 07:26:53 51°13.7 2°55.779 100.5 2.2 284 12.3
2009-03-19 07:26:57 51°13.701 2°55.775 99.9 2.1 283 12.5
2009-03-19 07:27:02 51°13.701 2°55.771 98.6 1.9 283 -999
2009-03-19 07:27:07 51°13.702 2°55.767 97 1.7 283 4.6
2009-03-19 07:27:13 51°13.702 2°55.763 95 1.5 281 4.7
2009-03-19 07:27:18 51°13.702 2°55.76 93.4 1.3 282 -999
2009-03-19 07:27:22 51°13.703 2°55.758 91.8 1.1 279 4.7
2009-03-19 07:27:27 51°13.703 2°55.756 90.3 0.9 281 12.5
2009-03-19 07:27:32 51°13.703 2°55.755 87.9 0.7 281 12.5
2009-03-19 07:27:37 51°13.703 2°55.753 85.2 0.5 287 12.5
2009-03-19 07:27:42 51°13.704 2°55.753 82.2 0.4 293 12.5
2009-03-19 07:27:47 51°13.704 2°55.752 78.8 0.2 327 4.5
2009-03-19 07:27:52 51°13.704 2°55.752 75.4 0.2 16 4.6
2009-03-19 07:27:57 51°13.704 2°55.753 72.6 0.3 37 5.2
2009-03-19 07:28:01 51°13.704 2°55.754 68 0.4 51 12.6
2009-03-19 07:28:06 51°13.705 2°55.754 64.2 0.5 50 12.6
2009-03-19 07:28:11 51°13.706 2°55.755 60.3 0.7 48 12.6
2009-03-19 07:28:16 51°13.706 2°55.757 56.4 0.8 50 12.6
2009-03-19 07:28:21 51°13.707 2°55.758 53.3 0.9 43 12.6
2009-03-19 07:28:26 51°13.708 2°55.759 48.7 0.9 43 12.6
2009-03-19 07:28:30 51°13.709 2°55.761 44.9 1 39 12.6
2009-03-19 07:28:35 51°13.71 2°55.762 40.7 1 37 12.6
2009-03-19 07:28:40 51°13.711 2°55.763 37.7 0.8 32 12.6
2009-03-19 07:28:45 51°13.712 2°55.763 34 0.3 39 12.6
2009-03-19 07:28:50 51°13.712 2°55.763 31.1 -999 237 12.6
2009-03-19 07:28:55 51°13.711 2°55.763 27.6 0.5 198 12.6
2009-03-19 07:29:00 51°13.71 2°55.762 25.1 0.7 205 12.6
2009-03-19 07:29:05 51°13.709 2°55.762 22.1 0.7 190 12.6
2009-03-19 07:29:09 51°13.708 2°55.762 19.4 0.8 202 12.6
2009-03-19 07:29:14 51°13.707 2°55.761 17.1 0.7 192 12.6
2009-03-19 07:29:19 51°13.706 2°55.761 15.3 0.7 201 12.6
2009-03-19 07:29:24 51°13.706 2°55.76 13.6 0.6 193 9
2009-03-19 07:29:29 51°13.705 2°55.76 12.1 0.5 201 8.5
2009-03-19 07:29:34 51°13.704 2°55.76 10.4 0.4 195 5
2009-03-19 07:29:39 51°13.704 2°55.76 8.6 0.2 218 4.6
2009-03-19 07:29:44 51°13.704 2°55.759 6.4 0.1 287 4.7
2009-03-19 07:29:49 51°13.704 2°55.759 3.7 0.2 328 -999
2009-03-19 07:29:54 51°13.704 2°55.759 1.3 0.3 348 4.9
2009-03-19 07:29:58 51°13.705 2°55.759 357.2 0.5 342 5
2009-03-19 07:30:04 51°13.706 2°55.758 353.6 0.6 347 5
2009-03-19 07:30:09 51°13.707 2°55.758 349.9 0.8 342 4.9
2009-03-19 07:30:14 51°13.708 2°55.757 345.8 0.9 339 5.3
2009-03-19 07:30:19 51°13.709 2°55.756 341.9 1.1 336 -999
2009-03-19 07:30:25 51°13.711 2°55.755 338 1.4 334 5.1
2009-03-19 07:30:29 51°13.713 2°55.753 334.5 1.6 329 12.6
2009-03-19 07:30:34 51°13.715 2°55.751 331.8 1.9 330 -999
2009-03-19 07:30:39 51°13.717 2°55.748 329.6 2.2 327 12.6
2009-03-19 07:30:45 51°13.721 2°55.745 327.9 2.4 327 12.6
2009-03-19 07:30:49 51°13.723 2°55.743 326.7 2.5 325 12.6
2009-03-19 07:30:54 51°13.726 2°55.739 326.3 2.7 326 12.5
2009-03-19 07:30:59 51°13.729 2°55.735 326.1 2.9 323 12.5
2009-03-19 07:31:04 51°13.732 2°55.731 326.1 3.1 323 12.5
2009-03-19 07:31:09 51°13.735 2°55.727 326.1 3.2 322 12.5
2009-03-19 07:31:14 51°13.739 2°55.722 326.1 3.3 322 12.5
2009-03-19 07:31:19 51°13.743 2°55.718 326.1 3.4 322 12.4
2009-03-19 07:31:24 51°13.746 2°55.713 326.3 3.6 323 12.4
2009-03-19 07:31:29 51°13.75 2°55.708 326.9 3.7 324 12
2009-03-19 07:31:33 51°13.754 2°55.704 327.8 3.7 325 11.8
2009-03-19 07:31:39 51°13.759 2°55.699 328.7 3.8 325 11.7
2009-03-19 07:31:44 51°13.763 2°55.694 329.3 3.9 326 11.6
2009-03-19 07:31:49 51°13.768 2°55.689 330.1 4 327 -999
2009-03-19 07:31:54 51°13.773 2°55.685 331.1 4.1 328 11.7
2009-03-19 07:31:58 51°13.777 2°55.681 331.9 4.2 330 11.7
2009-03-19 07:32:04 51°13.783 2°55.676 332.7 4.2 331 11.6
2009-03-19 07:32:09 51°13.788 2°55.671 333.3 4.2 331 11.7
2009-03-19 07:32:14 51°13.793 2°55.667 333.8 4.3 331 11.8
2009-03-19 07:32:19 51°13.798 2°55.662 333.7 4.3 331 11.8
2009-03-19 07:32:24 51°13.804 2°55.658 333.4 4.4 332 11.8
2009-03-19 07:32:29 51°13.809 2°55.653 333.2 4.4 332 11.8
2009-03-19 07:32:33 51°13.813 2°55.649 334 4.4 334 11.8
2009-03-19 07:32:39 51°13.82 2°55.644 335.1 4.4 335 11.7
2009-03-19 07:32:44 51°13.826 2°55.641 337.6 4.4 337 11.6
2009-03-19 07:32:49 51°13.831 2°55.637 339.6 4.3 340 11.6
2009-03-19 07:32:53 51°13.836 2°55.635 343.2 4.2 342 11.5
2009-03-19 07:32:59 51°13.842 2°55.632 345.8 4 345 11.4
2009-03-19 07:33:04 51°13.848 2°55.63 349.9 3.9 348 11.5
2009-03-19 07:33:09 51°13.853 2°55.629 353.5 3.8 351 11.5
2009-03-19 07:33:14 51°13.858 2°55.628 357.2 3.7 354 11.5
2009-03-19 07:33:19 51°13.863 2°55.628 0.1 3.6 358 11.5
2009-03-19 07:33:24 51°13.867 2°55.628 3.8 3.5 -999 11.6
2009-03-19 07:33:29 51°13.872 2°55.628 7.2 3.3 3 11.6
2009-03-19 07:33:34 51°13.876 2°55.629 8.8 3.2 5 11.3
2009-03-19 07:33:39 51°13.881 2°55.63 10.6 3.1 7 11.8
2009-03-19 07:33:44 51°13.885 2°55.631 12.1 3.1 9 12.1
2009-03-19 07:33:49 51°13.889 2°55.632 13.4 2.9 10 12.1
2009-03-19 07:33:54 51°13.893 2°55.633 14.3 2.9 10 12.2
2009-03-19 07:33:59 51°13.897 2°55.634 14.1 2.8 10 12.1
2009-03-19 07:34:04 51°13.901 2°55.635 12.5 2.8 8 12
2009-03-19 07:34:09 51°13.904 2°55.636 10.5 2.7 7 12.1
2009-03-19 07:34:13 51°13.907 2°55.636 7.7 2.6 5 12
2009-03-19 07:34:19 51°13.911 2°55.637 5.9 2.5 3 11.9
2009-03-19 07:34:24 51°13.915 2°55.637 3.2 2.4 2 11.9
2009-03-19 07:34:29 51°13.918 2°55.637 0.7 2.3 -999 11.4
2009-03-19 07:34:34 51°13.921 2°55.636 358.5 2.3 357 11.5
2009-03-19 07:34:39 51°13.924 2°55.636 356.3 2.3 357 11.6
2009-03-19 07:34:44 51°13.928 2°55.635 353.4 2.3 348 11.5
2009-03-19 07:34:49 51°13.93 2°55.634 349.3 2.2 350 11.9
2009-03-19 07:34:54 51°13.933 2°55.633 347 2.1 346 11.9
2009-03-19 07:34:59 51°13.936 2°55.632 344.7 1.9 346 12.1
2009-03-19 07:35:04 51°13.938 2°55.631 343 1.8 341 11.9
2009-03-19 07:35:09 51°13.941 2°55.63 342 1.7 344 11.9
2009-03-19 07:35:13 51°13.942 2°55.629 341.7 1.6 340 12.1
2009-03-19 07:35:19 51°13.945 2°55.627 341.3 1.6 340 12.1
2009-03-19 07:35:24 51°13.947 2°55.626 340.6 1.5 336 12.1
2009-03-19 07:35:29 51°13.949 2°55.625 340.1 1.6 338 12.1
2009-03-19 07:35:34 51°13.95 2°55.623 339.4 1.4 335 12.2
2009-03-19 07:35:39 51°13.952 2°55.622 338.6 1.4 337 12.2
2009-03-19 07:35:44 51°13.954 2°55.621 337.9 1.4 332 12.2
2009-03-19 07:35:49 51°13.956 2°55.619 337.1 1.4 334 12.2
2009-03-19 07:35:54 51°13.957 2°55.617 336 1.5 329 12.1
2009-03-19 07:35:59 51°13.959 2°55.616 334.6 1.5 331 12.1
2009-03-19 07:36:04 51°13.962 2°55.614 333.2 1.6 329 12.1
2009-03-19 07:36:09 51°13.964 2°55.613 332.3 1.8 329 12.1
2009-03-19 07:36:14 51°13.966 2°55.61 331.6 2 328 12.1
2009-03-19 07:36:18 51°13.968 2°55.608 331.5 2.5 328 12
2009-03-19 07:36:24 51°13.973 2°55.604 331.8 3.2 330 12
2009-03-19 07:36:29 51°13.977 2°55.6 332.1 3.6 330 12
2009-03-19 07:36:34 51°13.982 2°55.595 331.8 4.2 331 12.1
2009-03-19 07:36:39 51°13.988 2°55.59 331.1 4.9 329 12.1
2009-03-19 07:36:44 51°13.995 2°55.584 330.6 5.7 330 12.1
2009-03-19 07:36:49 51°14.003 2°55.577 329.7 6.3 326 12
2009-03-19 07:36:54 51°14.01 2°55.568 328 6.7 326 12.1
2009-03-19 07:36:58 51°14.017 2°55.561 326.7 7.1 323 12.1
2009-03-19 07:37:04 51°14.026 2°55.549 325.6 7.4 323 11.8
2009-03-19 07:37:09 51°14.035 2°55.539 325.6 7.7 324 11.8
2009-03-19 07:37:14 51°14.044 2°55.529 325.7 7.9 323 11.7
2009-03-19 07:37:19 51°14.053 2°55.518 325.7 8.3 325 11.7
2009-03-19 07:37:24 51°14.063 2°55.508 326.4 8.5 325 12
2009-03-19 07:37:29 51°14.073 2°55.497 327 8.7 326 -999
2009-03-19 07:37:34 51°14.083 2°55.486 327.3 8.9 326 12
2009-03-19 07:37:39 51°14.094 2°55.475 327.5 9 327 12.1
2009-03-19 07:37:45 51°14.106 2°55.462 328.3 9.2 326 12.1
2009-03-19 07:37:50 51°14.117 2°55.45 327 9.2 324 -999
2009-03-19 07:37:55 51°14.127 2°55.437 326 9.4 323 5
2009-03-19 07:38:00 51°14.138 2°55.425 325.5 9.5 324 5.1
2009-03-19 07:38:05 51°14.149 2°55.413 325.5 9.6 324 4.6
2009-03-19 07:38:10 51°14.159 2°55.4 325.7 9.6 324 4.6
2009-03-19 07:38:15 51°14.17 2°55.387 325.5 9.7 323 12.2
2009-03-19 07:38:19 51°14.179 2°55.376 324.2 9.8 322 12.3
2009-03-19 07:38:25 51°14.191 2°55.36 323.5 9.8 322 12
2009-03-19 07:38:29 51°14.2 2°55.349 322.9 9.9 320 -999
2009-03-19 07:38:35 51°14.212 2°55.332 321.7 10.1 320 12.4
2009-03-19 07:38:40 51°14.223 2°55.317 320.5 10.2 318 -999
2009-03-19 07:38:45 51°14.233 2°55.302 319.9 10.2 318 12.7
2009-03-19 07:38:50 51°14.244 2°55.286 318.7 10.3 316 12.4
2009-03-19 07:38:55 51°14.253 2°55.27 316.6 10.3 314 12.7
2009-03-19 07:39:00 51°14.263 2°55.253 315.8 10.4 313 12.5
2009-03-19 07:39:06 51°14.275 2°55.232 314.4 10.5 311 -999
2009-03-19 07:39:10 51°14.282 2°55.218 312.5 10.6 310 12.3
2009-03-19 07:39:15 51°14.291 2°55.199 311.2 10.6 308 11.9
2009-03-19 07:39:20 51°14.3 2°55.181 309.8 10.7 307 12.2
2009-03-19 07:39:25 51°14.309 2°55.161 308.5 10.8 305 12
2009-03-19 07:39:30 51°14.317 2°55.142 306.9 10.8 304 12.1
2009-03-19 07:39:35 51°14.326 2°55.122 306.4 11 305 12.1
2009-03-19 07:39:39 51°14.333 2°55.106 307.1 11.1 304 12.1
2009-03-19 07:39:45 51°14.343 2°55.081 306.5 11.2 303 12
2009-03-19 07:39:49 51°14.349 2°55.064 304.9 11.3 301 11.8
2009-03-19 07:39:54 51°14.358 2°55.042 303.8 11.3 301 11.5
2009-03-19 07:39:59 51°14.366 2°55.02 302.8 11.5 300 11.2
2009-03-19 07:40:04 51°14.374 2°54.998 302.4 11.6 301 11.2
2009-03-19 07:40:09 51°14.383 2°54.977 303.6 11.7 302 11.4
2009-03-19 07:40:13 51°14.39 2°54.959 304.2 11.8 302 11.5
2009-03-19 07:40:19 51°14.401 2°54.933 305.1 11.8 304 11.6
2009-03-19 07:40:24 51°14.41 2°54.912 306.6 11.9 306 11.7
2009-03-19 07:40:29 51°14.421 2°54.891 308.4 12.1 307 11.8
2009-03-19 07:40:34 51°14.431 2°54.869 309.8 12.1 308 11.9
2009-03-19 07:40:39 51°14.442 2°54.849 310.4 12.2 309 12
2009-03-19 07:40:44 51°14.452 2°54.827 310.3 12.3 308 12
2009-03-19 07:40:49 51°14.464 2°54.807 311.5 12.3 312 12
2009-03-19 07:40:54 51°14.475 2°54.787 313.3 12.2 312 12.1
2009-03-19 07:40:59 51°14.488 2°54.767 314.9 12.2 314 12.1
2009-03-19 07:41:04 51°14.501 2°54.747 316.3 12.2 315 12
2009-03-19 07:41:09 51°14.513 2°54.727 316.6 12.2 314 11.9
2009-03-19 07:41:14 51°14.525 2°54.707 315.8 12.2 314 11.9
2009-03-19 07:41:18 51°14.534 2°54.691 315.1 12.2 314 11.9
2009-03-19 07:41:24 51°14.549 2°54.668 315.5 12.2 316 11.6
2009-03-19 07:41:29 51°14.561 2°54.649 316.4 12.3 316 11.6
2009-03-19 07:41:34 51°14.574 2°54.631 317.4 12.3 319 11.5
2009-03-19 07:41:39 51°14.587 2°54.614 319.4 12.2 320 11.4
2009-03-19 07:41:44 51°14.601 2°54.597 320.3 12.2 321 11.4
2009-03-19 07:41:49 51°14.615 2°54.581 321.3 12.2 322 11.3
2009-03-19 07:41:54 51°14.628 2°54.564 322.7 12.2 324 11.3
2009-03-19 07:41:59 51°14.642 2°54.549 324.7 12.2 326 11.3
2009-03-19 07:42:04 51°14.656 2°54.535 326.9 12.2 328 11.4
2009-03-19 07:42:09 51°14.671 2°54.521 328.7 12.2 328 11.4
2009-03-19 07:42:14 51°14.685 2°54.507 329.2 12.2 329 11.4
2009-03-19 07:42:18 51°14.697 2°54.497 329.7 12.2 330 11.3
2009-03-19 07:42:25 51°14.717 2°54.478 330.2 12.3 330 11.4
2009-03-19 07:42:29 51°14.728 2°54.467 329.9 12.2 329 11.4
2009-03-19 07:42:34 51°14.743 2°54.452 329 12.2 327 11.4
2009-03-19 07:42:39 51°14.757 2°54.438 328.6 12.1 328 11.4
2009-03-19 07:42:44 51°14.771 2°54.423 327.4 12.1 326 11.3
2009-03-19 07:42:49 51°14.785 2°54.408 326.9 12.1 326 11.2
2009-03-19 07:42:55 51°14.802 2°54.39 326.5 12.1 325 11.1
2009-03-19 07:43:00 51°14.815 2°54.375 326.1 12.1 326 11.1
2009-03-19 07:43:05 51°14.829 2°54.36 326 12.1 326 11.2
2009-03-19 07:43:09 51°14.84 2°54.348 326 12.1 326 11
2009-03-19 07:43:15 51°14.857 2°54.331 327.3 12.1 328 10.9
2009-03-19 07:43:19 51°14.868 2°54.318 327.5 12.1 326 10.7
2009-03-19 07:43:25 51°14.885 2°54.302 328.1 12.1 328 10.7
2009-03-19 07:43:30 51°14.899 2°54.287 328.9 12.1 327 10.5
2009-03-19 07:43:35 51°14.914 2°54.274 329.4 12.1 329 10.3
2009-03-19 07:43:39 51°14.925 2°54.263 329.6 12 328 10.1
2009-03-19 07:43:45 51°14.942 2°54.246 329.7 12 329 10.1
2009-03-19 07:43:50 51°14.956 2°54.232 329.7 12 328 10.1
2009-03-19 07:43:54 51°14.967 2°54.221 329.5 12 328 10
2009-03-19 07:44:00 51°14.984 2°54.204 329.4 12 329 10
2009-03-19 07:44:05 51°14.998 2°54.19 329.7 12.1 328 10
2009-03-19 07:44:10 51°15.012 2°54.176 329.7 12.1 329 10
2009-03-19 07:44:14 51°15.023 2°54.165 330.3 12 329 10
2009-03-19 07:44:19 51°15.038 2°54.151 330.3 12 329 10
2009-03-19 07:44:24 51°15.052 2°54.137 330.4 12.1 328 10
2009-03-19 07:44:29 51°15.067 2°54.124 330.3 12 329 10
2009-03-19 07:44:34 51°15.081 2°54.11 330.3 12 329 10.2
2009-03-19 07:44:39 51°15.095 2°54.096 330.3 12 329 10.2
2009-03-19 07:44:44 51°15.109 2°54.083 331 12 330 10.3
2009-03-19 07:44:49 51°15.124 2°54.069 331.7 12.1 330 10.3
2009-03-19 07:44:54 51°15.138 2°54.056 332.4 12 331 10.3
2009-03-19 07:44:59 51°15.153 2°54.043 332.6 12 331 10.3
2009-03-19 07:45:04 51°15.168 2°54.03 332.9 12.1 332 10.2
2009-03-19 07:45:09 51°15.183 2°54.018 333.2 12.1 332 10.3
2009-03-19 07:45:14 51°15.198 2°54.005 333.4 12.1 332 10.4
2009-03-19 07:45:19 51°15.212 2°53.992 333.3 12.2 331 10.3
2009-03-19 07:45:24 51°15.227 2°53.98 333.2 12.1 332 10.4
2009-03-19 07:45:29 51°15.242 2°53.967 333.1 12.1 332 10.4
2009-03-19 07:45:34 51°15.257 2°53.954 333.1 12.2 332 10.5
2009-03-19 07:45:39 51°15.272 2°53.941 333 12.2 332 10.5
2009-03-19 07:45:44 51°15.287 2°53.928 332.9 12.2 332 10.6
2009-03-19 07:45:49 51°15.302 2°53.916 333 12.2 332 10.7
2009-03-19 07:45:54 51°15.316 2°53.903 333 12.3 332 10.8
2009-03-19 07:45:59 51°15.331 2°53.889 333 12.3 332 10.8
2009-03-19 07:46:04 51°15.346 2°53.876 333 12.2 332 10.8
2009-03-19 07:46:09 51°15.361 2°53.864 332.9 12.2 332 10.8
2009-03-19 07:46:14 51°15.376 2°53.851 332.9 12.3 332 11
2009-03-19 07:46:19 51°15.391 2°53.838 332.9 12.2 332 11
2009-03-19 07:46:24 51°15.406 2°53.826 332.9 12.2 332 11
2009-03-19 07:46:29 51°15.421 2°53.813 332.9 12.2 332 11.1
2009-03-19 07:46:34 51°15.436 2°53.8 332.8 12.3 332 11.2
2009-03-19 07:46:39 51°15.451 2°53.787 332.7 12.2 331 11.4
2009-03-19 07:46:44 51°15.466 2°53.774 332.7 12.2 332 11.5
2009-03-19 07:46:49 51°15.481 2°53.761 332.8 12.1 331 11.6
2009-03-19 07:46:54 51°15.495 2°53.748 333.1 12.1 332 11.6
2009-03-19 07:46:59 51°15.51 2°53.736 333.1 12.2 332 11.7
2009-03-19 07:47:04 51°15.525 2°53.723 333.1 12.1 332 11.9
2009-03-19 07:47:09 51°15.54 2°53.711 333.3 12.1 332 11.8
2009-03-19 07:47:14 51°15.555 2°53.698 333.2 12.1 332 12
2009-03-19 07:47:19 51°15.569 2°53.685 333.1 12.1 331 12.2
2009-03-19 07:47:23 51°15.581 2°53.674 333 12.1 332 12.3
2009-03-19 07:47:29 51°15.599 2°53.659 333 12.1 332 12.4
2009-03-19 07:47:34 51°15.614 2°53.646 333 12.1 332 12.5
2009-03-19 07:47:39 51°15.628 2°53.634 332.9 12.1 332 12.6
2009-03-19 07:47:44 51°15.643 2°53.621 332.9 12.1 332 12.7
2009-03-19 07:47:49 51°15.658 2°53.609 333.2 12 332 12.7
2009-03-19 07:47:54 51°15.672 2°53.596 333.1 12 332 12.7
2009-03-19 07:47:59 51°15.687 2°53.583 333.2 12 332 12.4
2009-03-19 07:48:04 51°15.702 2°53.571 332.9 12 331 12.7
2009-03-19 07:48:09 51°15.717 2°53.558 332.8 12.1 332 13
2009-03-19 07:48:14 51°15.731 2°53.545 332.8 12.1 332 13.1
2009-03-19 07:48:19 51°15.746 2°53.532 332.7 12.1 331 13.1
2009-03-19 07:48:24 51°15.761 2°53.519 332.9 12.1 332 13.2
2009-03-19 07:48:29 51°15.776 2°53.507 333.1 12.1 332 13.2
2009-03-19 07:48:34 51°15.79 2°53.494 333.2 12.1 332 13.2
2009-03-19 07:48:39 51°15.805 2°53.481 333.2 12.1 332 13.3
2009-03-19 07:48:44 51°15.82 2°53.468 333.1 12.1 332 13.4
2009-03-19 07:48:49 51°15.835 2°53.455 333.1 12.2 332 13.4
2009-03-19 07:48:54 51°15.85 2°53.443 333 12.2 331 13.1
2009-03-19 07:48:59 51°15.864 2°53.43 332.9 12.2 332 13.1
2009-03-19 07:49:04 51°15.879 2°53.417 333.1 12.2 332 13.2
2009-03-19 07:49:09 51°15.895 2°53.405 333.4 12.1 333 13.2
2009-03-19 07:49:14 51°15.91 2°53.392 333.5 12.2 332 13
2009-03-19 07:49:19 51°15.925 2°53.379 333.2 12.2 332 13.4
2009-03-19 07:49:24 51°15.939 2°53.367 333.2 12.1 332 12.9
2009-03-19 07:49:29 51°15.954 2°53.354 333.2 12.1 333 13.3
2009-03-19 07:49:34 51°15.97 2°53.341 333.2 12.2 332 13
2009-03-19 07:49:39 51°15.985 2°53.329 333.2 12.2 332 13.2
2009-03-19 07:49:44 51°16 2°53.316 333.5 12.3 333 12.9
2009-03-19 07:49:49 51°16.015 2°53.304 333.3 12.2 332 12.8
2009-03-19 07:49:54 51°16.029 2°53.291 333.2 12.2 332 12.9
2009-03-19 07:49:59 51°16.044 2°53.278 333.7 12.3 333 12.9
2009-03-19 07:50:04 51°16.059 2°53.265 333.3 12.2 332 12.9
2009-03-19 07:50:09 51°16.074 2°53.253 332.7 12.3 332 13
2009-03-19 07:50:14 51°16.089 2°53.24 332.7 12.2 332 12.9
2009-03-19 07:50:19 51°16.104 2°53.227 332.8 12.3 332 12.9
2009-03-19 07:50:24 51°16.12 2°53.215 333 12.2 333 13
2009-03-19 07:50:29 51°16.135 2°53.202 333 12.3 332 12.9
2009-03-19 07:50:34 51°16.15 2°53.19 333.6 12.3 334 13
2009-03-19 07:50:39 51°16.165 2°53.178 334.2 12.2 334 12.9
2009-03-19 07:50:44 51°16.18 2°53.166 334.8 12.2 335 13
2009-03-19 07:50:49 51°16.195 2°53.154 335 12.2 334 13
2009-03-19 07:50:54 51°16.211 2°53.143 335.1 12.2 335 13
2009-03-19 07:50:59 51°16.226 2°53.131 335 12.3 334 13
2009-03-19 07:51:04 51°16.241 2°53.119 335.4 12.2 335 13
2009-03-19 07:51:09 51°16.257 2°53.108 335.3 12.2 334 13
2009-03-19 07:51:14 51°16.272 2°53.096 335.5 12.2 335 13
2009-03-19 07:51:19 51°16.287 2°53.084 335.4 12.1 334 13.1
2009-03-19 07:51:23 51°16.299 2°53.075 335.1 12.2 334 13
2009-03-19 07:51:29 51°16.318 2°53.061 335.1 12.2 335 13.1
2009-03-19 07:51:34 51°16.333 2°53.05 335.2 12.2 335 13.1
2009-03-19 07:51:39 51°16.348 2°53.038 335.2 12.2 334 13
2009-03-19 07:51:44 51°16.363 2°53.026 335.1 12.2 334 13.1
2009-03-19 07:51:49 51°16.378 2°53.015 334.9 12.2 334 13.1
2009-03-19 07:51:54 51°16.394 2°53.004 335.7 12.2 336 13.1
2009-03-19 07:51:59 51°16.409 2°52.992 336.1 12.2 335 13
2009-03-19 07:52:04 51°16.425 2°52.982 336.6 12.2 337 13
2009-03-19 07:52:09 51°16.44 2°52.971 337 12.2 336 13
2009-03-19 07:52:14 51°16.456 2°52.961 337.3 12.2 337 13
2009-03-19 07:52:19 51°16.471 2°52.95 337.4 12.2 336 13
2009-03-19 07:52:24 51°16.487 2°52.939 337.4 12.2 337 13
2009-03-19 07:52:29 51°16.503 2°52.928 337.6 12.3 337 13
2009-03-19 07:52:34 51°16.519 2°52.918 337.6 12.2 337 12.9
2009-03-19 07:52:39 51°16.534 2°52.907 337.6 12.2 337 12.9
2009-03-19 07:52:44 51°16.55 2°52.897 337.6 12.2 337 13
2009-03-19 07:52:49 51°16.566 2°52.886 337.4 12.3 336 12.9
2009-03-19 07:52:54 51°16.581 2°52.875 337.1 12.3 336 12.8
2009-03-19 07:52:59 51°16.597 2°52.864 337 12.3 337 12.6
2009-03-19 07:53:04 51°16.612 2°52.854 337.1 12.2 337 12.6
2009-03-19 07:53:09 51°16.628 2°52.843 337.4 12.2 337 12.5
2009-03-19 07:53:14 51°16.644 2°52.833 337.6 12.2 337 12.5
2009-03-19 07:53:19 51°16.659 2°52.822 337.6 12.2 337 12.4
2009-03-19 07:53:24 51°16.675 2°52.813 338.6 12.2 339 12.3
2009-03-19 07:53:29 51°16.691 2°52.803 339 12.2 339 12.1
2009-03-19 07:53:34 51°16.707 2°52.793 339.4 12.3 339 12
2009-03-19 07:53:39 51°16.723 2°52.784 339.7 12.3 339 11.8
2009-03-19 07:53:44 51°16.738 2°52.773 339.2 12.2 338 11.5
2009-03-19 07:53:49 51°16.754 2°52.763 338.3 12.2 338 11.2
2009-03-19 07:53:54 51°16.77 2°52.753 338.3 12.2 338 10.9
2009-03-19 07:53:59 51°16.785 2°52.743 337.8 12.2 337 10.8
2009-03-19 07:54:04 51°16.801 2°52.732 337.4 12.2 337 10.9
2009-03-19 07:54:09 51°16.816 2°52.722 337 12.2 337 10.9
2009-03-19 07:54:14 51°16.832 2°52.711 337.3 12.2 338 10.8
2009-03-19 07:54:19 51°16.847 2°52.701 337.7 12.2 338 10.6
2009-03-19 07:54:24 51°16.863 2°52.691 338.3 12.2 339 10.7
2009-03-19 07:54:29 51°16.879 2°52.681 338.8 12.2 338 10.7
2009-03-19 07:54:34 51°16.894 2°52.671 338.8 12.2 339 10.7
2009-03-19 07:54:39 51°16.91 2°52.662 339 12.2 339 10.8
2009-03-19 07:54:44 51°16.926 2°52.652 339.1 12.2 338 10.9
2009-03-19 07:54:49 51°16.941 2°52.641 339 12.2 338 11
2009-03-19 07:54:54 51°16.957 2°52.632 338.9 12.2 339 11.1
2009-03-19 07:54:59 51°16.973 2°52.622 339.1 12.2 339 11.1
2009-03-19 07:55:04 51°16.989 2°52.613 339.8 12.2 340 11.1
2009-03-19 07:55:09 51°17.005 2°52.604 340.5 12.1 340 11
2009-03-19 07:55:14 51°17.021 2°52.595 340.9 12.2 341 10.9
2009-03-19 07:55:19 51°17.037 2°52.587 342.1 12.2 343 10.8
2009-03-19 07:55:24 51°17.053 2°52.579 342.9 12.2 342 10.7
2009-03-19 07:55:29 51°17.07 2°52.572 343.7 12.2 345 10.8
2009-03-19 07:55:34 51°17.086 2°52.564 344.5 12.2 344 10.8
2009-03-19 07:55:39 51°17.102 2°52.558 344.9 12.2 345 10.7
2009-03-19 07:55:44 51°17.118 2°52.551 345.6 12.2 344 10.9
2009-03-19 07:55:49 51°17.135 2°52.544 345.5 12.2 346 10.8
2009-03-19 07:55:54 51°17.152 2°52.537 346 12.3 346 11
2009-03-19 07:55:59 51°17.168 2°52.531 346.6 12.3 347 11
2009-03-19 07:56:04 51°17.185 2°52.525 347.4 12.3 347 11.1
2009-03-19 07:56:09 51°17.202 2°52.52 348 12.3 348 11
2009-03-19 07:56:14 51°17.218 2°52.514 348.4 12.4 348 11.2
2009-03-19 07:56:19 51°17.235 2°52.508 348.5 12.4 348 11.1
2009-03-19 07:56:24 51°17.252 2°52.503 348.5 12.4 348 11.3
2009-03-19 07:56:29 51°17.269 2°52.497 348.5 12.4 348 11.2
2009-03-19 07:56:34 51°17.286 2°52.492 348.8 12.4 349 11.3
2009-03-19 07:56:39 51°17.303 2°52.486 348.8 12.4 348 11.3
2009-03-19 07:56:44 51°17.319 2°52.481 348.9 12.4 349 11.4
2009-03-19 07:56:49 51°17.336 2°52.476 349.5 12.4 349 11.4
2009-03-19 07:56:54 51°17.353 2°52.471 349.6 12.4 349 11.3
2009-03-19 07:56:59 51°17.37 2°52.466 349.9 12.4 350 11.3
2009-03-19 07:57:04 51°17.387 2°52.462 350.9 12.4 351 11.3
2009-03-19 07:57:09 51°17.404 2°52.457 351.3 12.4 351 11.3
2009-03-19 07:57:14 51°17.421 2°52.452 351.1 12.5 350 11.4
2009-03-19 07:57:19 51°17.438 2°52.447 350.6 12.4 350 11.5
2009-03-19 07:57:24 51°17.455 2°52.442 350.2 12.4 350 11.5
2009-03-19 07:57:29 51°17.472 2°52.437 349.8 12.4 350 11.5
2009-03-19 07:57:34 51°17.489 2°52.433 349.5 12.4 350 11.5
2009-03-19 07:57:39 51°17.506 2°52.429 350.7 12.4 352 11.5
2009-03-19 07:57:44 51°17.523 2°52.424 351.2 12.3 351 11.4
2009-03-19 07:57:49 51°17.539 2°52.421 352 12.3 352 11.4
2009-03-19 07:57:54 51°17.556 2°52.417 352.3 12.3 352 11.5
2009-03-19 07:57:59 51°17.574 2°52.413 352.8 12.4 353 11.5
2009-03-19 07:58:04 51°17.591 2°52.41 353.1 12.4 353 11.5
2009-03-19 07:58:09 51°17.608 2°52.407 353.3 12.4 353 11.4
2009-03-19 07:58:14 51°17.625 2°52.404 353.5 12.4 354 11.5
2009-03-19 07:58:19 51°17.642 2°52.4 353.7 12.4 353 11.6
2009-03-19 07:58:24 51°17.659 2°52.397 353.6 12.4 353 11.5
2009-03-19 07:58:29 51°17.676 2°52.393 353.4 12.4 352 11.4
2009-03-19 07:58:34 51°17.693 2°52.39 353.5 12.4 353 11.5
2009-03-19 07:58:39 51°17.71 2°52.388 354.4 12.5 355 11.4
2009-03-19 07:58:44 51°17.727 2°52.385 354.8 12.4 355 11.4
2009-03-19 07:58:49 51°17.745 2°52.383 355.7 12.5 356 11.5
2009-03-19 07:58:54 51°17.762 2°52.381 356.1 12.5 356 11.5
2009-03-19 07:58:59 51°17.779 2°52.379 355.9 12.5 355 11.5
2009-03-19 07:59:04 51°17.797 2°52.379 357.9 12.5 359 11.5
2009-03-19 07:59:09 51°17.814 2°52.378 358.6 12.5 358 11.5
2009-03-19 07:59:14 51°17.831 2°52.378 359.6 12.5 1 11.5
2009-03-19 07:59:19 51°17.849 2°52.378 0.1 12.5 359 11.5
2009-03-19 07:59:24 51°17.866 2°52.378 0.7 12.5 1 11.5
2009-03-19 07:59:29 51°17.883 2°52.379 1.2 12.4 -999 11.6
2009-03-19 07:59:34 51°17.901 2°52.379 1.5 12.5 1 11.6
2009-03-19 07:59:39 51°17.918 2°52.38 1.8 12.5 1 11.6
2009-03-19 07:59:44 51°17.935 2°52.38 2 12.4 1 11.6
2009-03-19 07:59:49 51°17.952 2°52.381 1.8 12.5 1 11.6
2009-03-19 07:59:54 51°17.97 2°52.381 1.6 12.5 1 11.6
2009-03-19 07:59:59 51°17.987 2°52.382 1.5 12.4 1 11.6
2009-03-19 08:00:04 51°18.005 2°52.383 1.6 12.5 1 11.7
2009-03-19 08:00:09 51°18.022 2°52.383 1.7 12.5 1 11.7
2009-03-19 08:00:14 51°18.039 2°52.383 1.7 12.5 1 11.7
2009-03-19 08:00:19 51°18.057 2°52.384 1.3 12.5 1 11.7
2009-03-19 08:00:24 51°18.074 2°52.385 1.2 12.5 1 11.7
2009-03-19 08:00:29 51°18.091 2°52.385 1.3 12.5 1 11.7
2009-03-19 08:00:34 51°18.108 2°52.386 1.5 12.4 1 11.8
2009-03-19 08:00:39 51°18.126 2°52.386 1.2 12.4 -999 11.8
2009-03-19 08:00:44 51°18.143 2°52.386 0.8 12.5 -999 11.8
2009-03-19 08:00:49 51°18.16 2°52.386 0.7 12.5 -999 11.8
2009-03-19 08:00:54 51°18.177 2°52.386 0.8 12.4 -999 11.8
2009-03-19 08:00:59 51°18.195 2°52.388 1.5 12.4 2 11.9
2009-03-19 08:01:04 51°18.212 2°52.388 1.2 12.5 -999 11.9
2009-03-19 08:01:09 51°18.229 2°52.388 1.2 12.5 1 12
2009-03-19 08:01:14 51°18.246 2°52.388 0.7 12.4 -999 12
2009-03-19 08:01:19 51°18.264 2°52.388 0.6 12.5 -999 12
2009-03-19 08:01:24 51°18.281 2°52.388 0.4 12.4 -999 12
2009-03-19 08:01:29 51°18.298 2°52.387 0.1 12.5 359 12.1
2009-03-19 08:01:34 51°18.316 2°52.387 0.1 12.5 -999 12.1
2009-03-19 08:01:39 51°18.333 2°52.387 0.1 12.4 359 12.2
2009-03-19 08:01:44 51°18.351 2°52.386 0.1 12.4 359 12.1
2009-03-19 08:01:49 51°18.368 2°52.386 0.1 12.4 359 12.2
2009-03-19 08:01:54 51°18.385 2°52.385 0.1 12.5 359 12.3
2009-03-19 08:01:59 51°18.402 2°52.385 0.1 12.5 359 12.3
2009-03-19 08:02:04 51°18.419 2°52.384 0.4 12.5 359 12.3
2009-03-19 08:02:09 51°18.437 2°52.384 0.4 12.5 359 12.4
2009-03-19 08:02:14 51°18.454 2°52.383 359.8 12.5 358 12.4
2009-03-19 08:02:19 51°18.472 2°52.382 -999 12.5 359 12.5
2009-03-19 08:02:24 51°18.489 2°52.381 -999 12.5 358 12.5
2009-03-19 08:02:29 51°18.506 2°52.38 359.7 12.5 358 12.5
2009-03-19 08:02:34 51°18.523 2°52.379 359.7 12.5 358 12.6
2009-03-19 08:02:39 51°18.541 2°52.378 359.8 12.5 358 12.6
2009-03-19 08:02:45 51°18.561 2°52.377 0.2 12.4 358 12.7
2009-03-19 08:02:49 51°18.575 2°52.376 -999 12.4 358 12.7
2009-03-19 08:02:54 51°18.592 2°52.375 359.8 12.5 358 12.8
2009-03-19 08:02:59 51°18.609 2°52.374 359.9 12.4 358 12.7
2009-03-19 08:03:05 51°18.63 2°52.373 -999 12.4 358 12.7
2009-03-19 08:03:09 51°18.644 2°52.373 -999 12.4 358 12.8
2009-03-19 08:03:14 51°18.661 2°52.372 -999 12.4 358 12.9
2009-03-19 08:03:19 51°18.678 2°52.371 359.8 12.4 358 12.9
2009-03-19 08:03:24 51°18.695 2°52.37 359.5 12.4 358 13
2009-03-19 08:03:29 51°18.712 2°52.369 359.7 12.3 358 13.1
2009-03-19 08:03:34 51°18.729 2°52.368 359.6 12.4 358 13.2
2009-03-19 08:03:39 51°18.747 2°52.367 359.6 12.4 358 13.2
2009-03-19 08:03:44 51°18.764 2°52.366 359.8 12.4 358 13.3
2009-03-19 08:03:49 51°18.781 2°52.365 359.7 12.4 358 13.4
2009-03-19 08:03:54 51°18.798 2°52.364 359.6 12.4 358 13.4
2009-03-19 08:03:59 51°18.815 2°52.362 359.7 12.4 358 13.5
2009-03-19 08:04:04 51°18.833 2°52.361 359.6 12.4 358 13.6
2009-03-19 08:04:09 51°18.85 2°52.36 359.8 12.4 358 13.7
2009-03-19 08:04:14 51°18.867 2°52.359 -999 12.4 358 13.7
2009-03-19 08:04:19 51°18.884 2°52.358 -999 12.4 358 13.8
2009-03-19 08:04:24 51°18.902 2°52.357 -999 12.4 358 13.9
2009-03-19 08:04:29 51°18.919 2°52.356 359.9 12.4 358 13.9
2009-03-19 08:04:34 51°18.936 2°52.356 0.1 12.5 358 14.2
2009-03-19 08:04:39 51°18.953 2°52.355 359.7 12.4 358 14.2
2009-03-19 08:04:44 51°18.971 2°52.353 359.6 12.5 358 14.2
2009-03-19 08:04:49 51°18.988 2°52.352 359.5 12.5 358 14.3
2009-03-19 08:04:54 51°19.005 2°52.351 359.4 12.5 358 14.4
2009-03-19 08:04:59 51°19.023 2°52.35 359.4 12.5 358 14.5
2009-03-19 08:05:04 51°19.04 2°52.349 359.7 12.5 358 14.6
2009-03-19 08:05:09 51°19.057 2°52.348 359.8 12.5 358 14.6
2009-03-19 08:05:14 51°19.075 2°52.347 359.4 12.5 358 14.8
2009-03-19 08:05:19 51°19.092 2°52.346 359.4 12.5 358 14.8
2009-03-19 08:05:24 51°19.109 2°52.345 359.4 12.5 358 15
2009-03-19 08:05:29 51°19.127 2°52.344 359.4 12.6 357 15
2009-03-19 08:05:34 51°19.144 2°52.343 359.3 12.5 357 15
2009-03-19 08:05:39 51°19.161 2°52.341 359.1 12.6 357 15.1
2009-03-19 08:05:43 51°19.175 2°52.341 359.1 12.6 358 15.4
2009-03-19 08:05:49 51°19.196 2°52.34 359.5 12.6 358 15.3
2009-03-19 08:05:54 51°19.214 2°52.339 359.8 12.6 358 15.4
2009-03-19 08:05:59 51°19.231 2°52.338 359.8 12.6 358 15.5
2009-03-19 08:06:04 51°19.248 2°52.337 359.6 12.5 358 15.5
2009-03-19 08:06:09 51°19.266 2°52.336 359.7 12.5 358 15.6
2009-03-19 08:06:14 51°19.283 2°52.335 359.7 12.6 358 15.9
2009-03-19 08:06:19 51°19.301 2°52.334 359.6 12.5 358 15.9
2009-03-19 08:06:24 51°19.318 2°52.333 359.3 12.6 358 15.9
2009-03-19 08:06:29 51°19.336 2°52.332 359.7 12.5 359 15.9
2009-03-19 08:06:34 51°19.353 2°52.332 359.9 12.6 358 16
2009-03-19 08:06:39 51°19.371 2°52.331 359.4 12.6 358 16.1
2009-03-19 08:06:44 51°19.388 2°52.329 358.6 12.6 357 16.2
2009-03-19 08:06:49 51°19.405 2°52.328 358.2 12.5 358 16.2
2009-03-19 08:06:54 51°19.423 2°52.326 357.8 12.5 356 16.2
2009-03-19 08:06:59 51°19.44 2°52.324 357.2 12.5 357 16.3
2009-03-19 08:07:04 51°19.458 2°52.322 357.2 12.5 356 16.4
2009-03-19 08:07:09 51°19.475 2°52.321 357.9 12.5 358 16.3
2009-03-19 08:07:14 51°19.492 2°52.32 358.5 12.5 357 16.4
2009-03-19 08:07:19 51°19.51 2°52.319 358.6 12.6 358 16.5
2009-03-19 08:07:24 51°19.527 2°52.318 359.4 12.6 359 16.5
2009-03-19 08:07:29 51°19.545 2°52.318 359.7 12.6 359 16.5
2009-03-19 08:07:34 51°19.562 2°52.317 0.1 12.6 359 16.6
2009-03-19 08:07:39 51°19.58 2°52.317 359.8 12.6 359 16.6
2009-03-19 08:07:44 51°19.597 2°52.317 0.1 12.6 -999 16.7
2009-03-19 08:07:49 51°19.615 2°52.316 0.6 12.6 -999 16.6
2009-03-19 08:07:54 51°19.632 2°52.316 0.2 12.5 359 16.7
2009-03-19 08:07:59 51°19.65 2°52.316 0.2 12.5 -999 16.7
2009-03-19 08:08:04 51°19.667 2°52.315 0.1 12.5 359 16.7
2009-03-19 08:08:10 51°19.688 2°52.315 -999 12.6 359 16.8
2009-03-19 08:08:14 51°19.702 2°52.315 0.2 12.6 -999 16.9
2009-03-19 08:08:19 51°19.719 2°52.315 0.8 12.5 1 16.9
2009-03-19 08:08:23 51°19.733 2°52.315 0.8 12.6 -999 16.9
2009-03-19 08:08:29 51°19.754 2°52.315 0.8 12.5 -999 16.8
2009-03-19 08:08:34 51°19.772 2°52.316 1 12.5 -999 16.9
2009-03-19 08:08:39 51°19.789 2°52.316 1 12.6 -999 17.1
2009-03-19 08:08:44 51°19.807 2°52.316 1 12.5 -999 17
2009-03-19 08:08:49 51°19.824 2°52.316 1 12.5 -999 17
2009-03-19 08:08:54 51°19.842 2°52.316 1.3 12.6 1 17
2009-03-19 08:08:59 51°19.859 2°52.316 1.5 12.5 -999 17
2009-03-19 08:09:04 51°19.876 2°52.317 1.5 12.5 -999 17.1
2009-03-19 08:09:09 51°19.894 2°52.317 1 12.5 -999 17.1
2009-03-19 08:09:14 51°19.911 2°52.318 1.8 12.5 2 17.1
2009-03-19 08:09:19 51°19.928 2°52.319 2.3 12.5 1 17.1
2009-03-19 08:09:24 51°19.946 2°52.32 2.9 12.6 3 17.1
2009-03-19 08:09:29 51°19.963 2°52.32 3.1 12.5 2 17.1
2009-03-19 08:09:34 51°19.98 2°52.322 3.9 12.6 4 17.2
2009-03-19 08:09:39 51°19.998 2°52.324 4.2 12.5 3 17.1
2009-03-19 08:09:44 51°20.015 2°52.325 4.3 12.5 4 17.1
2009-03-19 08:09:49 51°20.033 2°52.326 4.2 12.6 3 17.2
2009-03-19 08:09:54 51°20.05 2°52.328 3.8 12.5 3 17.1
2009-03-19 08:09:59 51°20.067 2°52.329 3.8 12.5 3 17.2
2009-03-19 08:10:04 51°20.085 2°52.331 3.9 12.5 3 17.2
2009-03-19 08:10:09 51°20.102 2°52.332 4.2 12.6 3 17.2
2009-03-19 08:10:14 51°20.119 2°52.333 4 12.6 3 17.2
2009-03-19 08:10:19 51°20.137 2°52.335 3.7 12.6 3 17.1
2009-03-19 08:10:24 51°20.154 2°52.336 4 12.5 3 17.1
2009-03-19 08:10:29 51°20.172 2°52.337 4 12.5 2 17.1
2009-03-19 08:10:34 51°20.189 2°52.338 3.7 12.4 2 17
2009-03-19 08:10:39 51°20.206 2°52.34 3.5 12.4 2 17
2009-03-19 08:10:44 51°20.223 2°52.341 3.5 12.4 2 17.1
2009-03-19 08:10:49 51°20.241 2°52.342 3.7 12.5 3 17
2009-03-19 08:10:54 51°20.258 2°52.343 3.7 12.5 2 16.9
2009-03-19 08:10:59 51°20.275 2°52.344 3.7 12.5 3 17
2009-03-19 08:11:04 51°20.292 2°52.346 3.8 12.5 2 16.9
2009-03-19 08:11:09 51°20.31 2°52.347 4.2 12.5 3 16.9
2009-03-19 08:11:14 51°20.327 2°52.348 4.1 12.5 2 16.9
2009-03-19 08:11:19 51°20.344 2°52.349 3.7 12.5 2 16.8
2009-03-19 08:11:24 51°20.362 2°52.35 3.4 12.5 2 16.8
2009-03-19 08:11:29 51°20.379 2°52.35 3.4 12.6 2 16.7
2009-03-19 08:11:34 51°20.397 2°52.351 3 12.5 1 16.5
2009-03-19 08:11:39 51°20.414 2°52.352 3 12.5 1 16.5
2009-03-19 08:11:44 51°20.432 2°52.352 3.2 12.5 1 16.3
2009-03-19 08:11:49 51°20.449 2°52.353 3 12.5 1 16.1
2009-03-19 08:11:54 51°20.466 2°52.354 3.2 12.5 2 16.1
2009-03-19 08:11:59 51°20.483 2°52.355 3.5 12.5 2 15.8
2009-03-19 08:12:04 51°20.501 2°52.356 3.3 12.5 2 15.7
2009-03-19 08:12:09 51°20.518 2°52.357 3.4 12.5 2 15.5
2009-03-19 08:12:14 51°20.535 2°52.358 3.6 12.5 2 15.6
2009-03-19 08:12:19 51°20.553 2°52.358 3.1 12.5 1 15.4
2009-03-19 08:12:23 51°20.567 2°52.359 3 12.5 2 15.2
2009-03-19 08:12:29 51°20.587 2°52.359 2.9 12.5 1 15.2
2009-03-19 08:12:34 51°20.605 2°52.36 2.9 12.5 2 15.2
2009-03-19 08:12:39 51°20.622 2°52.361 2.7 12.5 1 14.8
2009-03-19 08:12:44 51°20.64 2°52.362 2.5 12.5 1 15.1
2009-03-19 08:12:49 51°20.657 2°52.362 2.8 12.5 1 15.4
2009-03-19 08:12:54 51°20.674 2°52.363 2.8 12.5 1 15.4
2009-03-19 08:12:59 51°20.692 2°52.364 3 12.5 2 15.3
2009-03-19 08:13:04 51°20.709 2°52.365 3.1 12.5 2 15.2
2009-03-19 08:13:09 51°20.726 2°52.365 3 12.5 1 15.2
2009-03-19 08:13:14 51°20.744 2°52.366 2.9 12.5 2 15.2
2009-03-19 08:13:19 51°20.761 2°52.367 3 12.6 2 15.2
2009-03-19 08:13:24 51°20.779 2°52.367 2.7 12.6 1 15.1
2009-03-19 08:13:29 51°20.796 2°52.368 2.7 12.6 2 15.2
2009-03-19 08:13:34 51°20.814 2°52.369 2.8 12.5 2 15.2
2009-03-19 08:13:39 51°20.831 2°52.371 3.8 12.6 4 15.2
2009-03-19 08:13:44 51°20.849 2°52.372 4.2 12.6 2 15.3
2009-03-19 08:13:49 51°20.866 2°52.374 4.5 12.6 4 15.4
2009-03-19 08:13:54 51°20.883 2°52.376 5 12.6 3 15.4
2009-03-19 08:13:59 51°20.901 2°52.378 5.1 12.6 4 15.4
2009-03-19 08:14:04 51°20.918 2°52.381 5.9 12.7 5 15.6
2009-03-19 08:14:09 51°20.936 2°52.383 6.4 12.6 5 15.8
2009-03-19 08:14:14 51°20.953 2°52.386 6.7 12.6 5 15.8
2009-03-19 08:14:19 51°20.971 2°52.388 6 12.6 4 16
2009-03-19 08:14:24 51°20.988 2°52.39 5.6 12.5 5 16.2
2009-03-19 08:14:29 51°21.005 2°52.393 5.9 12.5 5 16.4
2009-03-19 08:14:34 51°21.023 2°52.395 6.4 12.6 6 16.5
2009-03-19 08:14:39 51°21.04 2°52.398 6.2 12.6 4 17
2009-03-19 08:14:44 51°21.058 2°52.401 6.3 12.6 6 17
2009-03-19 08:14:49 51°21.075 2°52.404 6.9 12.5 6 17
2009-03-19 08:14:54 51°21.092 2°52.407 7.2 12.6 7 17
2009-03-19 08:14:59 51°21.11 2°52.41 7.1 12.6 6 17.2
2009-03-19 08:15:04 51°21.127 2°52.413 6.9 12.6 6 17.4
2009-03-19 08:15:09 51°21.144 2°52.416 6.9 12.6 7 17.5
2009-03-19 08:15:14 51°21.162 2°52.419 7.3 12.6 6 17.5
2009-03-19 08:15:19 51°21.179 2°52.422 7.8 12.6 8 17.6
2009-03-19 08:15:24 51°21.196 2°52.425 7.9 12.6 6 17.7
2009-03-19 08:15:29 51°21.213 2°52.429 7.9 12.6 7 17.7
2009-03-19 08:15:34 51°21.231 2°52.432 8 12.6 7 18
2009-03-19 08:15:39 51°21.248 2°52.435 7.6 12.5 6 18
2009-03-19 08:15:44 51°21.265 2°52.439 7.6 12.5 6 18.1
2009-03-19 08:15:49 51°21.283 2°52.442 7.6 12.6 7 18.1
2009-03-19 08:15:54 51°21.3 2°52.445 7.6 12.5 7 18
2009-03-19 08:15:59 51°21.317 2°52.448 7.7 12.4 7 18.1
2009-03-19 08:16:04 51°21.334 2°52.451 7.7 12.5 7 18.2
2009-03-19 08:16:09 51°21.351 2°52.455 7.9 12.5 7 18.4
2009-03-19 08:16:14 51°21.369 2°52.458 7.9 12.5 6 18.5
2009-03-19 08:16:19 51°21.386 2°52.461 7.4 12.5 6 18.4
2009-03-19 08:16:24 51°21.403 2°52.464 7.7 12.6 7 18.5
2009-03-19 08:16:29 51°21.421 2°52.468 7.9 12.6 7 18.8
2009-03-19 08:16:34 51°21.438 2°52.471 8.1 12.6 7 18.9
2009-03-19 08:16:39 51°21.455 2°52.475 8.4 12.6 7 19
2009-03-19 08:16:44 51°21.473 2°52.478 8.4 12.6 7 19.2
2009-03-19 08:16:49 51°21.49 2°52.482 8.1 12.5 8 19.4
2009-03-19 08:16:54 51°21.507 2°52.486 8.7 12.5 8 19.5
2009-03-19 08:16:59 51°21.524 2°52.489 8.6 12.5 7 19.8
2009-03-19 08:17:04 51°21.542 2°52.493 8.8 12.6 8 19.9
2009-03-19 08:17:09 51°21.559 2°52.497 8.9 12.6 7 20
2009-03-19 08:17:14 51°21.576 2°52.5 8.6 12.6 7 20.3
2009-03-19 08:17:19 51°21.594 2°52.504 8.3 12.6 7 20.5
2009-03-19 08:17:24 51°21.611 2°52.507 8.5 12.6 7 20.7
2009-03-19 08:17:29 51°21.628 2°52.511 8.8 12.5 8 20.7
2009-03-19 08:17:34 51°21.645 2°52.515 8.9 12.6 7 21.1
2009-03-19 08:17:39 51°21.663 2°52.519 8.9 12.6 8 21.2
2009-03-19 08:17:44 51°21.68 2°52.522 8.7 12.6 7 21.4
2009-03-19 08:17:49 51°21.697 2°52.526 8.5 12.6 8 21.6
2009-03-19 08:17:54 51°21.715 2°52.53 8.7 12.6 8 21.8
2009-03-19 08:17:59 51°21.732 2°52.533 8.8 12.6 8 21.9
2009-03-19 08:18:04 51°21.749 2°52.537 8.7 12.6 7 22.2
2009-03-19 08:18:09 51°21.767 2°52.541 8.9 12.6 8 22.1
2009-03-19 08:18:14 51°21.784 2°52.545 10.2 12.6 9 22.4
2009-03-19 08:18:19 51°21.801 2°52.549 10.1 12.6 8 22.6
2009-03-19 08:18:24 51°21.818 2°52.553 10 12.6 8 22.9
2009-03-19 08:18:29 51°21.836 2°52.557 9.4 12.6 7 23.1
2009-03-19 08:18:34 51°21.853 2°52.56 9.2 12.6 7 23.3
2009-03-19 08:18:39 51°21.87 2°52.565 9.9 12.6 8 23.4
2009-03-19 08:18:44 51°21.888 2°52.568 10.2 12.6 8 23.9
2009-03-19 08:18:49 51°21.905 2°52.574 11 12.6 10 23.8
2009-03-19 08:18:54 51°21.922 2°52.578 11.3 12.5 9 23.9
2009-03-19 08:18:59 51°21.939 2°52.583 11.2 12.6 10 24.1
2009-03-19 08:19:04 51°21.956 2°52.588 11.8 12.5 10 24
2009-03-19 08:19:09 51°21.973 2°52.592 11.3 12.4 9 24.1
2009-03-19 08:19:14 51°21.99 2°52.596 10.4 12.4 8 24.4
2009-03-19 08:19:19 51°22.007 2°52.6 10 12.5 9 24.4
2009-03-19 08:19:24 51°22.025 2°52.605 10.2 12.5 9 24.3
2009-03-19 08:19:29 51°22.042 2°52.609 10.7 12.5 9 24.5
2009-03-19 08:19:34 51°22.059 2°52.614 10.7 12.6 9 24.6
2009-03-19 08:19:39 51°22.076 2°52.618 11 12.6 10 24.7
2009-03-19 08:19:44 51°22.093 2°52.623 11.4 12.5 10 24.8
2009-03-19 08:19:49 51°22.11 2°52.628 11.7 12.5 10 24.9
2009-03-19 08:19:54 51°22.128 2°52.633 11.6 12.6 10 24.7
2009-03-19 08:19:59 51°22.145 2°52.637 11.3 12.6 9 24.8
2009-03-19 08:20:04 51°22.162 2°52.642 11.1 12.5 9 24.8
2009-03-19 08:20:09 51°22.179 2°52.646 10.5 12.5 9 24.8
2009-03-19 08:20:14 51°22.196 2°52.651 10.7 12.5 9 24.7
2009-03-19 08:20:19 51°22.213 2°52.654 10.2 12.5 7 24.8
2009-03-19 08:20:24 51°22.231 2°52.658 9.1 12.5 7 24.5
2009-03-19 08:20:29 51°22.248 2°52.661 8.7 12.5 8 24.7
2009-03-19 08:20:34 51°22.265 2°52.664 8.4 12.5 6 24.5
2009-03-19 08:20:39 51°22.282 2°52.667 8.1 12.5 7 24.7
2009-03-19 08:20:44 51°22.3 2°52.671 8.2 12.5 7 24.6
2009-03-19 08:20:49 51°22.317 2°52.675 9 12.5 9 24.7
2009-03-19 08:20:54 51°22.334 2°52.679 9.8 12.6 8 24.6
2009-03-19 08:20:59 51°22.351 2°52.683 9.8 12.5 8 24.4
2009-03-19 08:21:04 51°22.368 2°52.687 10.3 12.6 9 24.2
2009-03-19 08:21:09 51°22.386 2°52.691 10.7 12.6 9 24
2009-03-19 08:21:14 51°22.403 2°52.695 10.4 12.5 9 23.9
2009-03-19 08:21:19 51°22.42 2°52.7 10.6 12.5 9 23.8
2009-03-19 08:21:24 51°22.437 2°52.704 10.8 12.5 9 23.7
2009-03-19 08:21:29 51°22.454 2°52.709 11 12.5 9 23.6
2009-03-19 08:21:34 51°22.472 2°52.713 10.5 12.5 9 23.7
2009-03-19 08:21:39 51°22.489 2°52.718 10.7 12.5 10 23.6
2009-03-19 08:21:43 51°22.503 2°52.72 10.2 12.5 7 23.6
2009-03-19 08:21:49 51°22.523 2°52.725 9.8 12.5 8 23.4
2009-03-19 08:21:54 51°22.54 2°52.73 9.8 12.5 9 23.8
2009-03-19 08:21:59 51°22.557 2°52.734 9.9 12.6 9 23.6
2009-03-19 08:22:04 51°22.575 2°52.738 10.1 12.5 9 23.5
2009-03-19 08:22:09 51°22.592 2°52.743 11 12.6 10 23.4
2009-03-19 08:22:14 51°22.609 2°52.748 11 12.6 10 23.6
2009-03-19 08:22:19 51°22.626 2°52.753 11.2 12.6 10 23.6
2009-03-19 08:22:24 51°22.643 2°52.758 12 12.5 11 23.3
2009-03-19 08:22:29 51°22.66 2°52.762 11.2 12.5 8 23.3
2009-03-19 08:22:34 51°22.677 2°52.767 10.8 12.5 10 23.3
2009-03-19 08:22:39 51°22.695 2°52.771 10.4 12.5 9 23.4
2009-03-19 08:22:44 51°22.712 2°52.775 9.7 12.5 9 23.5
2009-03-19 08:22:49 51°22.729 2°52.78 10.5 12.5 10 23.5
2009-03-19 08:22:54 51°22.746 2°52.784 10.9 12.5 9 23.7
2009-03-19 08:22:59 51°22.763 2°52.789 10.5 12.6 9 23.8
2009-03-19 08:23:04 51°22.78 2°52.794 10.7 12.6 10 23.8
2009-03-19 08:23:09 51°22.797 2°52.799 11.1 12.6 11 23.8
2009-03-19 08:23:14 51°22.815 2°52.805 11.8 12.6 11 23.8
2009-03-19 08:23:19 51°22.832 2°52.81 11.8 12.6 11 23.6
2009-03-19 08:23:24 51°22.849 2°52.815 12.1 12.6 11 23.3
2009-03-19 08:23:29 51°22.866 2°52.821 12.4 12.6 12 23
2009-03-19 08:23:34 51°22.883 2°52.826 12.1 12.5 11 22.4
2009-03-19 08:23:39 51°22.9 2°52.832 12.2 12.6 12 21.7
2009-03-19 08:23:44 51°22.917 2°52.838 11.9 12.6 12 23.5
2009-03-19 08:23:49 51°22.935 2°52.843 12 12.6 11 23.9
2009-03-19 08:23:54 51°22.952 2°52.848 11.1 12.6 10 23.9
2009-03-19 08:23:59 51°22.969 2°52.853 10.4 12.6 9 24
2009-03-19 08:24:04 51°22.986 2°52.857 10.3 12.6 10 23.9
2009-03-19 08:24:09 51°23.004 2°52.862 9.9 12.6 9 23.7
2009-03-19 08:24:14 51°23.021 2°52.866 9.4 12.6 9 23.7
2009-03-19 08:24:19 51°23.038 2°52.87 9.5 12.6 9 23.4
2009-03-19 08:24:24 51°23.055 2°52.875 9.5 12.6 9 23.1
2009-03-19 08:24:29 51°23.073 2°52.879 9.6 12.5 9 22.7
2009-03-19 08:24:34 51°23.09 2°52.883 9.5 12.5 9 21.4
2009-03-19 08:24:39 51°23.107 2°52.888 9.5 12.5 9 22.8
2009-03-19 08:24:44 51°23.124 2°52.893 10.5 12.5 11 24
2009-03-19 08:24:49 51°23.142 2°52.896 9.5 12.6 7 23.5
2009-03-19 08:24:54 51°23.158 2°52.903 10.7 12.6 13 23
2009-03-19 08:24:59 51°23.176 2°52.906 10.1 12.6 7 22.4
2009-03-19 08:25:04 51°23.193 2°52.913 11.5 12.6 14 22.1
2009-03-19 08:25:09 51°23.21 2°52.916 11.4 12.6 8 22
2009-03-19 08:25:14 51°23.227 2°52.923 11 12.6 12 22
2009-03-19 08:25:19 51°23.244 2°52.927 11 12.6 9 21.7
2009-03-19 08:25:24 51°23.261 2°52.932 11 12.6 12 21.6
2009-03-19 08:25:29 51°23.279 2°52.937 11 12.6 9 21.5
2009-03-19 08:25:34 51°23.296 2°52.943 11.1 12.6 12 21.6
2009-03-19 08:25:39 51°23.313 2°52.947 11.5 12.6 10 21.7
2009-03-19 08:25:45 51°23.334 2°52.955 12.1 12.6 12 21.6
2009-03-19 08:25:49 51°23.347 2°52.959 12.2 12.6 11 21.4
2009-03-19 08:25:54 51°23.364 2°52.965 12.2 12.6 12 21.4
2009-03-19 08:25:59 51°23.382 2°52.97 12.6 12.7 12 21.3
2009-03-19 08:26:04 51°23.399 2°52.976 12.5 12.6 12 21.5
2009-03-19 08:26:09 51°23.416 2°52.982 12.5 12.6 12 21.3
2009-03-19 08:26:14 51°23.433 2°52.987 12 12.7 11 21.5
2009-03-19 08:26:19 51°23.451 2°52.993 12.4 12.7 12 21.7
2009-03-19 08:26:24 51°23.468 2°52.998 12.1 12.7 11 21.8
2009-03-19 08:26:29 51°23.485 2°53.004 12.1 12.7 12 21.7
2009-03-19 08:26:34 51°23.502 2°53.01 12.4 12.7 12 22
2009-03-19 08:26:39 51°23.519 2°53.016 12.6 12.7 12 22
2009-03-19 08:26:44 51°23.537 2°53.021 12.2 12.7 11 21.5
2009-03-19 08:26:49 51°23.554 2°53.027 12.1 12.7 11 22.1
2009-03-19 08:26:54 51°23.571 2°53.032 12.4 12.6 11 22.6
2009-03-19 08:26:59 51°23.588 2°53.038 12.4 12.7 12 22.7
2009-03-19 08:27:04 51°23.606 2°53.043 12.5 12.6 12 21.3
2009-03-19 08:27:09 51°23.623 2°53.049 12.3 12.6 11 21.9
2009-03-19 08:27:14 51°23.64 2°53.054 12 12.7 11 22.6
2009-03-19 08:27:19 51°23.657 2°53.06 12 12.7 11 22.8
2009-03-19 08:27:24 51°23.675 2°53.065 12.2 12.6 11 22.7
2009-03-19 08:27:29 51°23.692 2°53.069 11.5 12.6 9 22.5
2009-03-19 08:27:34 51°23.709 2°53.074 10.9 12.7 10 22.8
2009-03-19 08:27:39 51°23.727 2°53.079 10.3 12.6 9 21.3
2009-03-19 08:27:44 51°23.744 2°53.084 10.8 12.6 11 21.6
2009-03-19 08:27:49 51°23.761 2°53.089 11.6 12.7 11 21.9
2009-03-19 08:27:54 51°23.779 2°53.094 11.4 12.7 11 22
2009-03-19 08:27:59 51°23.796 2°53.1 11.6 12.7 11 22
2009-03-19 08:28:04 51°23.813 2°53.105 11.7 12.7 11 21.7
2009-03-19 08:28:10 51°23.834 2°53.112 11.8 12.7 11 21
2009-03-19 08:28:14 51°23.847 2°53.116 11.8 12.7 11 21.2
2009-03-19 08:28:19 51°23.865 2°53.121 11.7 12.7 11 21.3
2009-03-19 08:28:23 51°23.879 2°53.125 11.8 12.7 11 20.7
2009-03-19 08:28:30 51°23.903 2°53.133 11.9 12.7 11 20.6
2009-03-19 08:28:34 51°23.916 2°53.137 12.1 12.6 10 20.8
2009-03-19 08:28:39 51°23.934 2°53.143 11.6 12.6 10 20.8
2009-03-19 08:28:44 51°23.951 2°53.149 12.1 12.7 12 18.7
2009-03-19 08:28:49 51°23.968 2°53.154 12.2 12.7 11 19.5
2009-03-19 08:28:54 51°23.985 2°53.159 12.1 12.7 11 19.6
2009-03-19 08:28:59 51°24.003 2°53.164 11.8 12.7 10 19.9
2009-03-19 08:29:04 51°24.02 2°53.17 11.7 12.7 11 20.1
2009-03-19 08:29:09 51°24.037 2°53.175 11.6 12.7 10 18.5
2009-03-19 08:29:14 51°24.054 2°53.18 11.6 12.7 11 19.2
2009-03-19 08:29:19 51°24.072 2°53.185 11.6 12.7 11 19.3
2009-03-19 08:29:24 51°24.089 2°53.191 11.8 12.7 11 19.3
2009-03-19 08:29:29 51°24.106 2°53.196 11.9 12.7 11 19.4
2009-03-19 08:29:34 51°24.124 2°53.201 11.7 12.7 11 19.3
2009-03-19 08:29:39 51°24.141 2°53.207 11.7 12.7 11 19.3
2009-03-19 08:29:44 51°24.158 2°53.212 11.7 12.7 11 19.5
2009-03-19 08:29:49 51°24.175 2°53.218 11.9 12.7 11 19.8
2009-03-19 08:29:54 51°24.193 2°53.223 12.1 12.7 11 18.8
2009-03-19 08:29:59 51°24.21 2°53.229 11.9 12.7 11 16.7
2009-03-19 08:30:04 51°24.227 2°53.234 11.9 12.6 11 17.5
2009-03-19 08:30:09 51°24.244 2°53.24 11.9 12.6 11 17.8
2009-03-19 08:30:14 51°24.262 2°53.245 12.3 12.7 11 18
2009-03-19 08:30:19 51°24.279 2°53.25 11.6 12.6 10 17.1
2009-03-19 08:30:24 51°24.296 2°53.255 11.7 12.6 11 18.2
2009-03-19 08:30:29 51°24.313 2°53.261 11.7 12.5 11 18.6
2009-03-19 08:30:34 51°24.33 2°53.265 11.4 12.5 10 18.6
2009-03-19 08:30:39 51°24.348 2°53.271 10.7 12.6 10 16.6
2009-03-19 08:30:44 51°24.365 2°53.274 9.8 12.6 9 18
2009-03-19 08:30:49 51°24.382 2°53.279 9.7 12.6 9 19
2009-03-19 08:30:54 51°24.399 2°53.283 8.9 12.5 8 19.6
2009-03-19 08:30:59 51°24.416 2°53.287 8.9 12.5 9 18.1
2009-03-19 08:31:04 51°24.434 2°53.291 9.1 12.6 8 18.4
2009-03-19 08:31:09 51°24.451 2°53.296 9.3 12.6 9 19.1
2009-03-19 08:31:14 51°24.468 2°53.3 9.6 12.6 8 19.8
2009-03-19 08:31:19 51°24.485 2°53.304 9.3 12.6 9 19.7
2009-03-19 08:31:23 51°24.499 2°53.308 9.5 12.5 9 19.8
2009-03-19 08:31:29 51°24.52 2°53.313 9.5 12.6 9 20.3
2009-03-19 08:31:34 51°24.537 2°53.317 9.3 12.5 9 20.5
2009-03-19 08:31:39 51°24.554 2°53.321 9.4 12.5 9 20.8
2009-03-19 08:31:44 51°24.571 2°53.326 9.2 12.5 9 20.9
2009-03-19 08:31:49 51°24.588 2°53.329 9.1 12.5 8 20.9
2009-03-19 08:31:54 51°24.606 2°53.334 9.1 12.5 9 21.1
2009-03-19 08:31:59 51°24.623 2°53.339 9.6 12.6 9 21.2
2009-03-19 08:32:04 51°24.64 2°53.343 9.7 12.6 10 21
2009-03-19 08:32:09 51°24.657 2°53.348 9.7 12.6 9 20.7
2009-03-19 08:32:14 51°24.674 2°53.352 9.7 12.5 10 19.5
2009-03-19 08:32:19 51°24.691 2°53.357 10.2 12.6 10 18.4
2009-03-19 08:32:24 51°24.708 2°53.362 10.4 12.6 10 18.9
2009-03-19 08:32:29 51°24.726 2°53.367 10.4 12.6 10 19.1
2009-03-19 08:32:34 51°24.743 2°53.372 10.5 12.6 10 17.2
2009-03-19 08:32:39 51°24.76 2°53.377 10.4 12.6 10 18.3
2009-03-19 08:32:44 51°24.777 2°53.381 10.4 12.5 9 18.7
2009-03-19 08:32:49 51°24.794 2°53.386 10 12.5 10 19.1
2009-03-19 08:32:54 51°24.811 2°53.391 10.2 12.6 10 19.7
2009-03-19 08:32:59 51°24.828 2°53.396 10.2 12.5 10 20.1
2009-03-19 08:33:04 51°24.846 2°53.4 10.4 12.5 10 20.3
2009-03-19 08:33:09 51°24.863 2°53.405 10.2 12.6 10 19.9
2009-03-19 08:33:14 51°24.88 2°53.41 10.2 12.6 10 18.8
2009-03-19 08:33:19 51°24.897 2°53.414 9.9 12.5 9 17.6
2009-03-19 08:33:24 51°24.914 2°53.419 9.7 12.5 10 18.7
2009-03-19 08:33:29 51°24.932 2°53.424 10 12.5 11 19.2
2009-03-19 08:33:34 51°24.949 2°53.429 10.7 12.6 11 19.8
2009-03-19 08:33:39 51°24.966 2°53.435 11.4 12.7 12 20.3
2009-03-19 08:33:44 51°24.983 2°53.441 12.1 12.6 13 20.4
2009-03-19 08:33:49 51°25 2°53.447 12.8 12.6 12 19.1
2009-03-19 08:33:54 51°25.017 2°53.453 12.4 12.6 11 20.5
2009-03-19 08:33:59 51°25.034 2°53.459 12.4 12.6 13 21.6
2009-03-19 08:34:04 51°25.051 2°53.465 12.8 12.6 12 21.7
2009-03-19 08:34:09 51°25.068 2°53.471 12.8 12.6 13 21.9
2009-03-19 08:34:14 51°25.086 2°53.476 12.8 12.6 12 21.9
2009-03-19 08:34:19 51°25.103 2°53.483 13 12.6 12 22.2
2009-03-19 08:34:25 51°25.123 2°53.489 12.7 12.6 12 22
2009-03-19 08:34:29 51°25.137 2°53.493 12.2 12.6 11 21.3
2009-03-19 08:34:34 51°25.154 2°53.499 11.6 12.6 11 21.7
2009-03-19 08:34:39 51°25.171 2°53.504 11 12.5 10 22.1
2009-03-19 08:34:45 51°25.192 2°53.51 10.7 12.6 11 21.9
2009-03-19 08:34:49 51°25.206 2°53.513 10.5 12.6 10 21.5
2009-03-19 08:34:54 51°25.223 2°53.518 10.4 12.6 10 22.1
2009-03-19 08:34:59 51°25.24 2°53.523 10.3 12.6 10 22.1
2009-03-19 08:35:04 51°25.257 2°53.528 10 12.6 10 21.9
2009-03-19 08:35:09 51°25.274 2°53.532 10.5 12.6 10 21.5
2009-03-19 08:35:14 51°25.292 2°53.538 11.6 12.6 12 21.7
2009-03-19 08:35:19 51°25.309 2°53.544 11.7 12.7 11 21.7
2009-03-19 08:35:24 51°25.326 2°53.549 12.4 12.6 12 21.9
2009-03-19 08:35:29 51°25.343 2°53.555 13.1 12.6 12 22.2
2009-03-19 08:35:34 51°25.36 2°53.56 12 12.6 11 22.4
2009-03-19 08:35:39 51°25.378 2°53.565 11.6 12.6 11 22.4
2009-03-19 08:35:44 51°25.395 2°53.57 11.4 12.6 10 22.9
2009-03-19 08:35:49 51°25.412 2°53.575 11 12.5 10 23
2009-03-19 08:35:54 51°25.429 2°53.58 11 12.5 11 23.2
2009-03-19 08:35:59 51°25.446 2°53.586 11.9 12.5 12 23.5
2009-03-19 08:36:04 51°25.463 2°53.592 12.1 12.6 12 23.8
2009-03-19 08:36:09 51°25.48 2°53.598 12.4 12.6 12 24.2
2009-03-19 08:36:14 51°25.497 2°53.603 12.6 12.5 11 24.3
2009-03-19 08:36:19 51°25.515 2°53.608 11.9 12.5 11 24.5
2009-03-19 08:36:24 51°25.532 2°53.613 11.4 12.5 10 24.8
2009-03-19 08:36:29 51°25.549 2°53.618 10.8 12.5 9 25
2009-03-19 08:36:34 51°25.566 2°53.622 10.7 12.5 10 25.2
2009-03-19 08:36:39 51°25.583 2°53.627 11 12.6 10 25.4
2009-03-19 08:36:44 51°25.6 2°53.632 10.9 12.6 10 25.6
2009-03-19 08:36:49 51°25.618 2°53.637 10.7 12.6 10 25.8
2009-03-19 08:36:54 51°25.635 2°53.641 10.6 12.6 10 26
2009-03-19 08:36:59 51°25.652 2°53.646 10 12.6 9 26.2
2009-03-19 08:37:04 51°25.669 2°53.65 10.2 12.6 10 26.6
2009-03-19 08:37:09 51°25.686 2°53.655 10 12.6 9 26.7
2009-03-19 08:37:14 51°25.704 2°53.659 10.1 12.6 10 26.8
2009-03-19 08:37:19 51°25.721 2°53.665 10.9 12.6 11 26.9
2009-03-19 08:37:24 51°25.738 2°53.67 11.7 12.6 12 26.8
2009-03-19 08:37:30 51°25.758 2°53.677 12.4 12.6 12 26.9
2009-03-19 08:37:34 51°25.772 2°53.683 13.1 12.5 13 27.1
2009-03-19 08:37:39 51°25.789 2°53.687 11.9 12.5 10 27.4
2009-03-19 08:37:44 51°25.806 2°53.694 11.7 12.6 12 27.8
2009-03-19 08:37:49 51°25.823 2°53.698 11.1 12.6 10 28
2009-03-19 08:37:54 51°25.84 2°53.703 10.3 12.5 11 27.9
2009-03-19 08:37:59 51°25.857 2°53.708 10.2 12.5 10 28.1
2009-03-19 08:38:04 51°25.874 2°53.713 10.1 12.5 11 28.1
2009-03-19 08:38:09 51°25.892 2°53.718 10.3 12.6 10 28.2
2009-03-19 08:38:14 51°25.909 2°53.723 10.2 12.6 10 28.3
2009-03-19 08:38:19 51°25.926 2°53.727 10 12.5 10 28.6
2009-03-19 08:38:24 51°25.943 2°53.732 9.6 12.6 10 28.9
2009-03-19 08:38:29 51°25.96 2°53.737 10.2 12.5 10 29.4
2009-03-19 08:38:34 51°25.977 2°53.742 10.1 12.5 10 29.6
2009-03-19 08:38:39 51°25.994 2°53.747 10.4 12.5 11 29.8
2009-03-19 08:38:44 51°26.011 2°53.752 10.5 12.5 10 30.2
2009-03-19 08:38:49 51°26.028 2°53.758 10.8 12.6 11 30.4
2009-03-19 08:38:54 51°26.046 2°53.762 10.5 12.6 10 30.6
2009-03-19 08:38:59 51°26.063 2°53.768 11 12.6 12 30.7
2009-03-19 08:39:04 51°26.08 2°53.774 11.7 12.6 11 30.8
2009-03-19 08:39:09 51°26.097 2°53.78 12 12.6 13 31
2009-03-19 08:39:14 51°26.114 2°53.786 12.5 12.6 12 31
2009-03-19 08:39:19 51°26.131 2°53.792 13.1 12.7 13 31.1
2009-03-19 08:39:24 51°26.148 2°53.798 13.2 12.6 12 31.1
2009-03-19 08:39:29 51°26.165 2°53.804 13.1 12.7 13 30.9
2009-03-19 08:39:34 51°26.182 2°53.81 13 12.7 12 31
2009-03-19 08:39:39 51°26.2 2°53.816 12.7 12.6 12 31.2
2009-03-19 08:39:44 51°26.217 2°53.823 13.1 12.6 13 31.5
2009-03-19 08:39:50 51°26.237 2°53.83 13.1 12.6 12 31.7
2009-03-19 08:39:54 51°26.251 2°53.835 12.9 12.7 13 31.9
2009-03-19 08:39:59 51°26.268 2°53.841 13 12.6 13 32
2009-03-19 08:40:04 51°26.285 2°53.847 12.9 12.6 12 32.3
2009-03-19 08:40:09 51°26.302 2°53.853 13.1 12.6 13 32.4
2009-03-19 08:40:14 51°26.319 2°53.859 13.2 12.6 13 32.7
2009-03-19 08:40:19 51°26.336 2°53.865 12.7 12.6 12 32.7
2009-03-19 08:40:24 51°26.353 2°53.872 13.1 12.5 13 32.8
2009-03-19 08:40:29 51°26.37 2°53.877 12.8 12.6 12 32.9
2009-03-19 08:40:34 51°26.387 2°53.883 12.5 12.6 12 33
2009-03-19 08:40:39 51°26.404 2°53.889 12.3 12.5 12 33
2009-03-19 08:40:44 51°26.421 2°53.894 11.3 12.5 11 32.9
2009-03-19 08:40:49 51°26.439 2°53.899 11 12.5 10 33.1
2009-03-19 08:40:54 51°26.456 2°53.904 10.3 12.5 10 33.2
2009-03-19 08:40:59 51°26.473 2°53.908 9.8 12.6 9 33.4
2009-03-19 08:41:04 51°26.49 2°53.913 10 12.6 10 33.5
2009-03-19 08:41:09 51°26.507 2°53.918 9.8 12.5 9 33.7
2009-03-19 08:41:14 51°26.524 2°53.922 9.6 12.5 10 33.4
2009-03-19 08:41:19 51°26.541 2°53.927 9.7 12.5 9 32.9
2009-03-19 08:41:24 51°26.559 2°53.931 9.9 12.6 10 32.8
2009-03-19 08:41:29 51°26.576 2°53.936 10 12.5 9 32.6
2009-03-19 08:41:34 51°26.593 2°53.94 9.8 12.6 9 32.9
2009-03-19 08:41:39 51°26.61 2°53.945 9.8 12.6 9 32.9
2009-03-19 08:41:44 51°26.627 2°53.949 9.8 12.5 9 32.7
2009-03-19 08:41:49 51°26.644 2°53.955 10.7 12.6 11 32.5
2009-03-19 08:41:54 51°26.661 2°53.96 11 12.5 10 32.5
2009-03-19 08:41:59 51°26.679 2°53.966 11.8 12.6 12 32.5
2009-03-19 08:42:04 51°26.696 2°53.971 12.1 12.6 11 32.3
2009-03-19 08:42:09 51°26.713 2°53.977 12.4 12.6 12 32.1
2009-03-19 08:42:14 51°26.73 2°53.983 12.8 12.6 12 31.8
2009-03-19 08:42:19 51°26.747 2°53.989 13 12.6 12 31.3
2009-03-19 08:42:24 51°26.764 2°53.995 13 12.6 12 30.7
2009-03-19 08:42:29 51°26.781 2°54.001 12.6 12.6 12 30
2009-03-19 08:42:34 51°26.798 2°54.006 11.6 12.6 10 28.9
2009-03-19 08:42:39 51°26.815 2°54.011 11.3 12.5 11 27.9
2009-03-19 08:42:43 51°26.829 2°54.014 10.9 12.6 9 27
2009-03-19 08:42:49 51°26.85 2°54.02 10.2 12.5 10 26.4
2009-03-19 08:42:54 51°26.867 2°54.024 10.1 12.6 9 26
2009-03-19 08:42:59 51°26.884 2°54.029 10.1 12.6 9 25.4
2009-03-19 08:43:04 51°26.901 2°54.033 9.9 12.6 9 24.7
2009-03-19 08:43:09 51°26.919 2°54.037 9.5 12.6 9 24.1
2009-03-19 08:43:14 51°26.936 2°54.042 9.5 12.5 9 23.9
2009-03-19 08:43:19 51°26.953 2°54.047 10.2 12.5 10 24
2009-03-19 08:43:24 51°26.97 2°54.051 10.3 12.6 10 24.2
2009-03-19 08:43:29 51°26.987 2°54.056 11 12.6 11 24.1
2009-03-19 08:43:34 51°27.004 2°54.061 11.4 12.5 10 24.4
2009-03-19 08:43:39 51°27.022 2°54.066 11.5 12.6 11 24.7
2009-03-19 08:43:45 51°27.042 2°54.072 10.7 12.5 9 24.7
2009-03-19 08:43:49 51°27.056 2°54.076 10.5 12.5 10 24.8
2009-03-19 08:43:54 51°27.073 2°54.08 10.4 12.6 9 24.8
2009-03-19 08:43:59 51°27.09 2°54.085 10.3 12.6 10 24.7
2009-03-19 08:44:05 51°27.111 2°54.091 10.6 12.6 10 24.9
2009-03-19 08:44:09 51°27.125 2°54.095 11.4 12.6 11 24.9
2009-03-19 08:44:14 51°27.142 2°54.101 12.3 12.6 12 24.9
2009-03-19 08:44:19 51°27.159 2°54.106 12.3 12.6 11 24.7
2009-03-19 08:44:24 51°27.176 2°54.112 12.6 12.6 12 24.8
2009-03-19 08:44:29 51°27.193 2°54.117 12.7 12.6 11 25.1
2009-03-19 08:44:34 51°27.21 2°54.123 12.8 12.6 12 25.3
2009-03-19 08:44:39 51°27.227 2°54.128 12.6 12.6 11 25.6
2009-03-19 08:44:44 51°27.244 2°54.134 13.1 12.5 12 26.2
2009-03-19 08:44:49 51°27.261 2°54.14 13.2 12.5 11 25.8
2009-03-19 08:44:54 51°27.279 2°54.145 13.2 12.6 12 25.9
2009-03-19 08:44:59 51°27.296 2°54.151 13.4 12.6 12 25.9
2009-03-19 08:45:04 51°27.313 2°54.157 13.1 12.6 12 25.7
2009-03-19 08:45:09 51°27.33 2°54.162 13 12.6 11 26.2
2009-03-19 08:45:14 51°27.347 2°54.168 12.9 12.6 12 26.5
2009-03-19 08:45:19 51°27.364 2°54.173 12.6 12.7 11 26.8
2009-03-19 08:45:24 51°27.381 2°54.179 12.4 12.6 11 26
2009-03-19 08:45:29 51°27.399 2°54.184 12.6 12.7 12 26.7
2009-03-19 08:45:34 51°27.416 2°54.189 12.4 12.6 10 26.4
2009-03-19 08:45:39 51°27.433 2°54.194 12.3 12.6 11 26.7
2009-03-19 08:45:45 51°27.454 2°54.2 12 12.6 10 26.9
2009-03-19 08:45:49 51°27.468 2°54.204 12 12.6 11 26.4
2009-03-19 08:45:54 51°27.485 2°54.21 12.3 12.6 11 26.8
2009-03-19 08:45:59 51°27.502 2°54.215 12.3 12.7 10 27.1
2009-03-19 08:46:05 51°27.523 2°54.221 12.5 12.6 11 27.1
2009-03-19 08:46:09 51°27.537 2°54.225 12.5 12.7 10 26.8
2009-03-19 08:46:14 51°27.554 2°54.231 12.4 12.7 11 26
2009-03-19 08:46:19 51°27.571 2°54.236 12.4 12.7 11 25.4
2009-03-19 08:46:24 51°27.588 2°54.24 11.9 12.7 9 26.7
2009-03-19 08:46:29 51°27.606 2°54.245 10.8 12.7 9 26.6
2009-03-19 08:46:34 51°27.623 2°54.249 11.1 12.7 9 25.4
2009-03-19 08:46:39 51°27.641 2°54.254 11.3 12.7 9 25.9
2009-03-19 08:46:44 51°27.658 2°54.259 11.9 12.7 9 26.3
2009-03-19 08:46:50 51°27.679 2°54.265 12.2 12.7 11 24.1
2009-03-19 08:46:54 51°27.693 2°54.269 12.1 12.7 10 25.4
2009-03-19 08:46:59 51°27.71 2°54.274 12.4 12.7 11 25.8
2009-03-19 08:47:04 51°27.728 2°54.279 12.6 12.7 10 25.4
2009-03-19 08:47:09 51°27.745 2°54.284 12.4 12.7 10 24.6
2009-03-19 08:47:14 51°27.762 2°54.288 11.9 12.8 9 22.9
2009-03-19 08:47:19 51°27.78 2°54.293 11.9 12.7 10 23.5
2009-03-19 08:47:24 51°27.797 2°54.298 11.8 12.7 10 24